Time;durP1;ratioP1;P1;durP2;ratioP2;P2;SDS_P1;SDS_P2;PMS_P1;PMS_P2;Temp;Humidity;BMP_temperature;BMP_pressure;BME280_temperature;BME280_humidity;BME280_pressure;Samples;Min_cycle;Max_cycle;Signal;HPM_P1;HPM_P2
2024/04/16 00:00:39;;;;;;;8.60;7.20;;;;;;;9.90;100.00;96594.59;105818;1254;65878;-47
2024/04/16 00:03:06;;;;;;;10.10;7.00;;;;;;;9.93;100.00;96594.41;105804;1253;72368;-47
2024/04/16 00:05:33;;;;;;;8.50;7.00;;;;;;;9.94;100.00;96532.02;105811;1254;61250;-46
2024/04/16 00:08:00;;;;;;;8.80;7.00;;;;;;;9.91;100.00;96503.05;105784;1257;61297;-46
2024/04/16 00:10:26;;;;;;;9.70;7.60;;;;;;;9.86;100.00;96531.61;105733;1257;74488;-48
2024/04/16 00:12:53;;;;;;;11.10;7.40;;;;;;;9.84;100.00;96547.02;105590;1254;65603;-46
2024/04/16 00:15:31;;;;;;;8.10;7.30;;;;;;;9.86;100.00;96580.56;105645;1253;72404;-46
2024/04/16 00:17:58;;;;;;;7.70;6.90;;;;;;;9.93;100.00;96591.23;105796;1257;61227;-46
2024/04/16 00:20:25;;;;;;;10.20;7.40;;;;;;;10.01;100.00;96598.45;105838;1254;61197;-47
2024/04/16 00:22:52;;;;;;;8.20;6.80;;;;;;;10.11;100.00;96610.60;105673;1254;74600;-48
2024/04/16 00:25:19;;;;;;;8.50;7.10;;;;;;;10.20;100.00;96615.88;105716;1257;64985;-49
2024/04/16 00:27:46;;;;;;;7.20;5.40;;;;;;;10.30;100.00;96608.27;105607;1254;72602;-48
2024/04/16 00:30:12;;;;;;;6.90;5.80;;;;;;;10.37;100.00;96604.80;105586;1257;61352;-48
2024/04/16 00:32:39;;;;;;;6.90;5.40;;;;;;;10.41;100.00;96606.95;105766;1254;61224;-49
2024/04/16 00:35:06;;;;;;;8.60;6.20;;;;;;;10.43;100.00;96598.00;105803;1257;61268;-49
2024/04/16 00:37:32;;;;;;;7.80;6.10;;;;;;;10.45;100.00;96592.11;105775;1254;65901;-48
2024/04/16 00:39:59;;;;;;;10.20;5.40;;;;;;;10.46;100.00;96569.83;105524;1254;72548;-47
2024/04/16 00:42:26;;;;;;;7.50;5.10;;;;;;;10.50;100.00;96541.31;105662;1254;61228;-45
2024/04/16 00:44:52;;;;;;;6.40;4.60;;;;;;;10.54;100.00;96505.10;105880;1257;61361;-47
2024/04/16 00:47:19;;;;;;;15.80;6.00;;;;;;;10.58;100.00;96510.24;105768;1254;61361;-47
2024/04/16 00:49:46;;;;;;;10.50;5.90;;;;;;;10.60;100.00;96524.11;105758;1257;65963;-46
2024/04/16 00:52:12;;;;;;;8.00;5.00;;;;;;;10.62;100.00;96527.16;105715;1260;61262;-46
2024/04/16 00:54:40;;;;;;;8.10;4.60;;;;;;;10.66;100.00;96519.09;105779;1254;61295;-46
2024/04/16 00:57:06;;;;;;;8.00;4.70;;;;;;;10.68;100.00;96508.17;105723;1254;61253;-48
2024/04/16 00:59:33;;;;;;;9.60;4.70;;;;;;;10.72;100.00;96503.65;105508;1254;61248;-48
2024/04/16 01:01:59;;;;;;;8.40;4.10;;;;;;;10.76;100.00;96529.06;105636;1259;61351;-48
2024/04/16 01:04:26;;;;;;;8.40;4.00;;;;;;;10.79;100.00;96528.40;105784;1254;61138;-47
2024/04/16 01:06:52;;;;;;;10.20;3.80;;;;;;;10.83;100.00;96515.77;105589;1257;61253;-47
2024/04/16 01:09:19;;;;;;;10.10;4.80;;;;;;;10.87;100.00;96509.11;105529;1254;61326;-47
2024/04/16 01:11:46;;;;;;;9.70;5.10;;;;;;;10.90;100.00;96502.50;105519;1254;73569;-47
2024/04/16 01:14:12;;;;;;;11.80;5.00;;;;;;;10.91;100.00;96507.02;105638;1256;61204;-47
2024/04/16 01:16:39;;;;;;;9.80;4.30;;;;;;;10.92;100.00;96515.42;105772;1254;72663;-46
2024/04/16 01:19:06;;;;;;;7.60;3.50;;;;;;;10.94;100.00;96512.97;105606;1256;61308;-48
2024/04/16 01:21:33;;;;;;;6.10;2.70;;;;;;;10.97;100.00;96514.48;105619;1254;61356;-47
2024/04/16 01:23:59;;;;;;;9.20;3.50;;;;;;;11.01;100.00;96502.35;105928;1254;74549;-48
2024/04/16 01:26:26;;;;;;;9.50;3.10;;;;;;;11.05;100.00;96489.08;105699;1253;61112;-49
2024/04/16 01:28:52;;;;;;;7.90;3.40;;;;;;;11.07;100.00;96475.86;105690;1254;61215;-49
2024/04/16 01:31:18;;;;;;;9.20;3.70;;;;;;;11.10;100.00;96470.27;105804;1257;61429;-48
2024/04/16 01:33:45;;;;;;;7.80;3.00;;;;;;;11.11;100.00;96466.04;105613;1254;61295;-47
2024/04/16 01:36:12;;;;;;;10.10;3.50;;;;;;;11.13;100.00;96471.61;105723;1254;61304;-47
2024/04/16 01:38:38;;;;;;;9.50;3.30;;;;;;;11.14;100.00;96466.15;105511;1254;61236;-47
2024/04/16 01:41:05;;;;;;;9.10;2.90;;;;;;;11.14;100.00;96473.10;105542;1254;72627;-47
2024/04/16 01:43:31;;;;;;;7.00;3.30;;;;;;;11.13;100.00;96465.64;105560;1257;61176;-48
2024/04/16 01:45:58;;;;;;;7.50;3.50;;;;;;;11.11;100.00;96459.30;105532;1254;61342;-47
2024/04/16 01:48:25;;;;;;;10.90;3.70;;;;;;;11.10;100.00;96465.30;105623;1254;74566;-47
2024/04/16 01:50:51;;;;;;;8.50;3.60;;;;;;;11.09;100.00;96470.41;105650;1254;65504;-47
2024/04/16 01:53:18;;;;;;;7.90;3.00;;;;;;;11.10;100.00;96467.98;105729;1253;72619;-47
2024/04/16 01:55:45;;;;;;;10.30;3.20;;;;;;;11.11;100.00;96475.52;105661;1253;61266;-47
2024/04/16 01:58:12;;;;;;;8.20;3.20;;;;;;;11.11;100.00;96477.45;105589;1254;61269;-48
2024/04/16 02:00:38;;;;;;;12.90;3.80;;;;;;;11.12;100.00;96475.39;105606;1257;74657;-48
2024/04/16 02:03:05;;;;;;;8.40;3.80;;;;;;;11.13;100.00;96472.84;105572;1257;61253;-47
2024/04/16 02:05:31;;;;;;;9.70;3.60;;;;;;;11.14;100.00;96472.56;105701;1254;72364;-48
2024/04/16 02:07:58;;;;;;;12.90;4.00;;;;;;;11.15;100.00;96474.36;105452;1257;61249;-46
2024/04/16 02:10:24;;;;;;;8.00;4.00;;;;;;;11.15;100.00;96469.61;105561;1254;61352;-46
2024/04/16 02:12:51;;;;;;;10.30;3.30;;;;;;;11.14;100.00;96462.70;105732;1254;61358;-46
2024/04/16 02:15:17;;;;;;;10.00;3.60;;;;;;;11.14;100.00;96460.33;105759;1254;61224;-48
2024/04/16 02:17:43;;;;;;;11.70;4.10;;;;;;;11.13;100.00;96448.34;105736;1254;61346;-47
2024/04/16 02:20:10;;;;;;;13.30;4.20;;;;;;;11.09;100.00;96432.88;105747;1254;61218;-47
2024/04/16 02:22:37;;;;;;;10.10;3.70;;;;;;;11.07;100.00;96436.02;105848;1254;61406;-47
2024/04/16 02:25:09;;;;;;;10.90;4.20;;;;;;;11.04;100.00;96450.08;105525;1254;61215;-48
2024/04/16 02:27:37;;;;;;;11.60;3.90;;;;;;;11.02;100.00;96468.31;105592;1254;66189;-47
2024/04/16 02:30:04;;;;;;;10.10;3.90;;;;;;;11.02;100.00;96467.17;105612;1254;73247;-47
2024/04/16 02:32:31;;;;;;;13.30;3.60;;;;;;;11.03;100.00;96469.05;105525;1254;61243;-47
2024/04/16 02:34:58;;;;;;;13.50;4.00;;;;;;;11.03;100.00;96476.55;105673;1255;61385;-47
2024/04/16 02:37:24;;;;;;;9.40;3.50;;;;;;;11.02;100.00;96478.88;105578;1253;75040;-47
2024/04/16 02:39:51;;;;;;;14.10;4.20;;;;;;;11.01;100.00;96483.21;105512;1257;61211;-47
2024/04/16 02:42:17;;;;;;;11.10;3.60;;;;;;;10.99;100.00;96476.20;105538;1254;61352;-47
2024/04/16 02:44:44;;;;;;;10.90;3.50;;;;;;;10.98;100.00;96476.69;105507;1254;61616;-47
2024/04/16 02:47:10;;;;;;;9.80;3.20;;;;;;;10.98;100.00;96480.65;105452;1254;174828;-48
2024/04/16 02:49:37;;;;;;;9.60;3.50;;;;;;;11.00;100.00;96479.66;105677;1253;74334;-47
2024/04/16 02:52:04;;;;;;;8.70;3.60;;;;;;;11.03;100.00;96470.10;105702;1257;65491;-48
2024/04/16 02:54:31;;;;;;;9.90;3.70;;;;;;;11.03;100.00;96462.14;105761;1254;72596;-48
2024/04/16 02:56:57;;;;;;;10.20;3.60;;;;;;;11.01;100.00;96458.04;105701;1254;61371;-45
2024/04/16 02:59:24;;;;;;;7.30;3.00;;;;;;;10.97;100.00;96455.39;105702;1254;61292;-46
2024/04/16 03:01:52;;;;;;;11.10;3.50;;;;;;;10.92;100.00;96456.03;105677;1258;74623;-47
2024/04/16 03:04:19;;;;;;;12.20;4.00;;;;;;;10.89;100.00;96461.80;105704;1254;66159;-49
2024/04/16 03:06:45;;;;;;;11.20;3.30;;;;;;;10.86;100.00;96456.21;105541;1254;72546;-48
2024/04/16 03:09:12;;;;;;;9.00;3.10;;;;;;;10.85;100.00;96462.97;105835;1257;61295;-49
2024/04/16 03:11:38;;;;;;;11.10;3.30;;;;;;;10.81;100.00;96467.50;105796;1256;61362;-47
2024/04/16 03:14:05;;;;;;;14.10;4.20;;;;;;;10.77;100.00;96463.15;105723;1254;61979;-47
2024/04/16 03:16:31;;;;;;;11.30;3.40;;;;;;;10.76;100.00;96449.40;105703;1254;61265;-47
2024/04/16 03:18:59;;;;;;;8.50;3.20;;;;;;;10.75;100.00;96450.39;106040;1257;61265;-47
2024/04/16 03:21:26;;;;;;;13.30;3.80;;;;;;;10.75;100.00;96457.85;105526;1254;61221;-48
2024/04/16 03:23:52;;;;;;;9.20;3.60;;;;;;;10.73;100.00;96447.10;106249;1257;61223;-48
2024/04/16 03:26:19;;;;;;;8.10;3.20;;;;;;;10.72;100.00;96445.30;105772;1254;61282;-48
2024/04/16 03:28:45;;;;;;;12.10;4.00;;;;;;;10.72;100.00;96440.30;105693;1254;61295;-46
2024/04/16 03:31:12;;;;;;;8.40;2.80;;;;;;;10.71;100.00;96436.30;105635;1254;61368;-46
2024/04/16 03:33:39;;;;;;;8.90;3.40;;;;;;;10.71;100.00;96425.60;105600;1254;61325;-46
2024/04/16 03:36:06;;;;;;;10.10;2.80;;;;;;;10.72;100.00;96427.38;105610;1254;61439;-47
2024/04/16 03:38:32;;;;;;;12.60;3.20;;;;;;;10.73;100.00;96426.80;105795;1254;74432;-47
2024/04/16 03:41:02;;;;;;;12.60;3.70;;;;;;;10.74;100.00;96421.93;105747;1254;61336;-47
2024/04/16 03:43:29;;;;;;;7.10;3.10;;;;;;;10.74;100.00;96415.83;105650;1259;72721;-47
2024/04/16 03:45:56;;;;;;;9.10;3.10;;;;;;;10.74;100.00;96415.29;105771;1256;61295;-47
2024/04/16 03:48:24;;;;;;;7.80;2.70;;;;;;;10.73;100.00;96420.31;105704;1254;61468;-47
2024/04/16 03:50:51;;;;;;;7.90;2.90;;;;;;;10.72;100.00;96418.59;105769;1258;74591;-47
2024/04/16 03:53:17;;;;;;;11.00;3.60;;;;;;;10.71;100.00;96423.13;105641;1256;65495;-48
2024/04/16 03:55:44;;;;;;;12.80;3.90;;;;;;;10.68;100.00;96425.48;105700;1253;61253;-47
2024/04/16 03:58:11;;;;;;;12.00;3.50;;;;;;;10.65;100.00;96441.83;105490;1254;61150;-47
2024/04/16 04:03:23;;;;;;;8.20;4.70;;;;;;;10.58;100.00;96455.63;105476;1254;74681;-48
2024/04/16 04:05:49;;;;;;;10.10;3.90;;;;;;;10.55;100.00;96445.57;105740;1254;66578;-47
2024/04/16 04:08:16;;;;;;;12.10;3.70;;;;;;;10.53;100.00;96439.24;105585;1257;72373;-46
2024/04/16 04:10:42;;;;;;;11.40;4.10;;;;;;;10.52;100.00;96438.35;105519;1254;61122;-45
2024/04/16 04:13:09;;;;;;;17.50;4.50;;;;;;;10.51;100.00;96446.19;105553;1255;61362;-45
2024/04/16 04:15:36;;;;;;;10.70;4.80;;;;;;;10.51;100.00;96451.92;105653;1255;74520;-47
2024/04/16 04:18:03;;;;;;;11.30;4.40;;;;;;;10.52;100.00;96454.50;105669;1254;65639;-47
2024/04/16 04:20:30;;;;;;;9.50;4.10;;;;;;;10.54;100.00;96462.58;105545;1254;72448;-47
2024/04/16 04:22:57;;;;;;;12.80;3.90;;;;;;;10.58;100.00;96457.48;105686;1254;62254;-48
2024/04/16 04:25:24;;;;;;;9.70;3.50;;;;;;;10.63;100.00;96465.31;105752;1257;61391;-51
2024/04/16 04:27:53;;;;;;;22.50;11.50;;;;;;;10.68;100.00;96459.20;105676;1259;74505;-48
2024/04/16 04:30:20;;;;;;;26.20;14.20;;;;;;;10.72;100.00;96455.61;105625;1258;65963;-48
2024/04/16 04:32:50;;;;;;;14.20;5.30;;;;;;;10.76;100.00;96463.48;105577;1254;72543;-48
2024/04/16 04:35:17;;;;;;;10.00;3.80;;;;;;;10.80;100.00;96473.36;105577;1257;61340;-45
2024/04/16 04:37:44;;;;;;;14.30;7.50;;;;;;;10.83;100.00;96488.95;105586;1254;61251;-48
2024/04/16 04:40:10;;;;;;;40.90;32.70;;;;;;;10.87;100.00;96494.48;105749;1254;61212;-46
2024/04/16 04:42:37;;;;;;;34.30;26.60;;;;;;;10.90;100.00;96487.88;105505;1258;65526;-47
2024/04/16 04:45:04;;;;;;;28.80;18.40;;;;;;;10.94;100.00;96488.24;105643;1254;61409;-50
2024/04/16 04:47:30;;;;;;;12.40;5.50;;;;;;;10.98;100.00;96494.52;105648;1254;61212;-49
2024/04/16 04:49:58;;;;;;;19.90;6.50;;;;;;;11.02;100.00;96491.37;105627;1254;61237;-48
2024/04/16 04:52:25;;;;;;;12.90;6.00;;;;;;;11.06;100.00;96490.17;105527;1260;74670;-47
2024/04/16 04:54:51;;;;;;;16.30;6.70;;;;;;;11.09;100.00;96490.62;105788;1254;66256;-47
2024/04/16 04:57:18;;;;;;;14.20;5.60;;;;;;;11.12;100.00;96488.20;105704;1254;73515;-48
2024/04/16 04:59:44;;;;;;;16.80;7.30;;;;;;;11.15;100.00;96490.22;105684;1258;61234;-47
2024/04/16 05:02:11;;;;;;;11.40;4.90;;;;;;;11.18;100.00;96495.08;105553;1254;61313;-47
2024/04/16 05:04:38;;;;;;;12.70;4.60;;;;;;;11.21;100.00;96495.55;105707;1256;74721;-46
2024/04/16 05:07:05;;;;;;;10.20;4.10;;;;;;;11.23;100.00;96488.73;105599;1254;65246;-47
2024/04/16 05:09:31;;;;;;;11.60;4.30;;;;;;;11.25;100.00;96485.68;105560;1254;71715;-49
2024/04/16 05:11:58;;;;;;;12.80;3.60;;;;;;;11.28;100.00;96484.38;105654;1254;61167;-46
2024/04/16 05:14:25;;;;;;;12.50;4.10;;;;;;;11.31;100.00;96484.48;105542;1254;61448;-48
2024/04/16 05:16:51;;;;;;;13.60;3.90;;;;;;;11.33;100.00;96496.67;105716;1255;75158;-48
2024/04/16 05:19:18;;;;;;;13.00;3.60;;;;;;;11.37;100.00;96501.23;105619;1254;61353;-48
2024/04/16 05:21:45;;;;;;;7.70;3.50;;;;;;;11.41;100.00;96497.88;105614;1254;72469;-53
2024/04/16 05:24:12;;;;;;;10.20;3.40;;;;;;;11.47;100.00;96497.48;105634;1254;62602;-45
2024/04/16 05:26:39;;;;;;;9.90;3.00;;;;;;;11.53;100.00;96501.58;105892;1254;61255;-54
2024/04/16 05:29:05;;;;;;;11.30;3.00;;;;;;;11.60;100.00;96499.73;105609;1259;74159;-49
2024/04/16 05:31:32;;;;;;;10.40;3.00;;;;;;;11.66;100.00;96501.66;105406;1259;66123;-49
2024/04/16 05:33:59;;;;;;;9.40;3.50;;;;;;;11.71;100.00;96503.61;105707;1254;72554;-48
2024/04/16 05:36:25;;;;;;;11.90;3.30;;;;;;;11.75;100.00;96502.05;105531;1255;61269;-49
2024/04/16 05:38:52;;;;;;;10.50;3.20;;;;;;;11.78;100.00;96507.98;106049;1254;61426;-49
2024/04/16 05:41:18;;;;;;;9.70;3.10;;;;;;;11.84;100.00;96505.48;105496;1254;75449;-50
2024/04/16 05:43:45;;;;;;;19.40;9.30;;;;;;;11.91;100.00;96498.27;105483;1257;66063;-51
2024/04/16 05:46:11;;;;;;;13.50;6.20;;;;;;;11.97;100.00;96491.97;105441;1254;71670;-51
2024/04/16 05:48:38;;;;;;;13.10;6.40;;;;;;;12.04;100.00;96492.27;105422;1257;62137;-48
2024/04/16 05:51:05;;;;;;;10.90;4.30;;;;;;;12.11;100.00;96497.57;105463;1254;61260;-49
2024/04/16 05:53:31;;;;;;;10.60;3.70;;;;;;;12.17;100.00;96496.14;105628;1258;74595;-49
2024/04/16 05:55:58;;;;;;;6.80;3.10;;;;;;;12.23;100.00;96498.77;105223;1259;61331;-49
2024/04/16 05:58:24;;;;;;;6.10;2.60;;;;;;;12.29;100.00;96499.35;105298;1255;61466;-49
2024/04/16 06:00:51;;;;;;;11.00;3.30;;;;;;;12.34;100.00;96501.50;105615;1254;61253;-49
2024/04/16 06:03:17;;;;;;;10.80;3.50;;;;;;;12.39;100.00;96501.34;105494;1254;61221;-50
2024/04/16 06:05:44;;;;;;;11.50;3.10;;;;;;;12.44;100.00;96503.32;105651;1258;74411;-50
2024/04/16 06:08:10;;;;;;;9.80;3.00;;;;;;;12.47;100.00;96505.12;105696;1254;61215;-49
2024/04/16 06:10:37;;;;;;;9.30;2.80;;;;;;;12.52;100.00;96501.73;105526;1260;72611;-50
2024/04/16 06:13:04;;;;;;;14.10;3.30;;;;;;;12.59;100.00;96507.77;105431;1257;61555;-49
2024/04/16 06:15:31;;;;;;;10.80;3.50;;;;;;;12.64;100.00;96504.70;105891;1254;62083;-49
2024/04/16 06:17:57;;;;;;;10.40;3.70;;;;;;;12.68;100.00;96500.39;106105;1254;74639;-50
2024/04/16 06:20:24;;;;;;;9.10;3.00;;;;;;;12.74;100.00;96499.70;105356;1259;61309;-50
2024/04/16 06:22:51;;;;;;;8.30;2.70;;;;;;;12.80;100.00;96498.73;105836;1254;72308;-49
2024/04/16 06:25:21;;;;;;;8.90;3.20;;;;;;;12.88;100.00;96499.22;105359;1258;61530;-49
2024/04/16 06:27:49;;;;;;;9.00;2.90;;;;;;;12.95;100.00;96492.50;105663;1254;61221;-49
2024/04/16 06:30:19;;;;;;;9.40;2.40;;;;;;;13.01;100.00;96488.39;105631;1259;73487;-50
2024/04/16 06:32:46;;;;;;;6.90;2.50;;;;;;;13.10;100.00;96491.78;105355;1260;64526;-51
2024/04/16 06:35:13;;;;;;;8.60;3.10;;;;;;;13.16;100.00;96489.19;105493;1254;73788;-50
2024/04/16 06:37:40;;;;;;;10.80;2.90;;;;;;;13.23;100.00;96490.70;105430;1260;61272;-51
2024/04/16 06:40:07;;;;;;;10.80;3.00;;;;;;;13.33;100.00;96492.59;105628;1254;61333;-50
2024/04/16 06:42:36;;;;;;;9.30;2.70;;;;;;;13.41;100.00;96492.27;105580;1258;75559;-49
2024/04/16 06:45:04;;;;;;;10.70;2.90;;;;;;;13.47;100.00;96488.66;105704;1253;65243;-43
2024/04/16 06:47:33;;;;;;;12.20;3.10;;;;;;;13.51;100.00;96489.15;105508;1254;71954;-47
2024/04/16 06:50:02;;;;;;;8.20;2.70;;;;;;;13.54;100.00;96492.30;105670;1254;61339;-48
2024/04/16 06:52:30;;;;;;;8.50;3.00;;;;;;;13.58;100.00;96495.56;105691;1254;61256;-51
2024/04/16 06:54:59;;;;;;;6.90;2.20;;;;;;;13.63;100.00;96497.69;105584;1259;73689;-54
2024/04/16 06:57:26;;;;;;;8.20;2.40;;;;;;;13.70;100.00;96496.55;105582;1260;65532;-43
2024/04/16 06:59:53;;;;;;;6.60;2.20;;;;;;;13.78;100.00;96490.83;105331;1254;73456;-52
2024/04/16 07:02:20;;;;;;;6.50;2.10;;;;;;;13.87;100.00;96490.53;105364;1259;61235;-51
2024/04/16 07:04:47;;;;;;;6.90;2.00;;;;;;;13.96;100.00;96486.75;105364;1254;61269;-57
2024/04/16 07:07:13;;;;;;;8.20;2.20;;;;;;;14.07;100.00;96483.70;105450;1259;74898;-54
2024/04/16 07:09:40;;;;;;;8.20;2.30;;;;;;;14.16;100.00;96483.85;105185;1259;65150;-55
2024/04/16 07:26:58;;;;;;;9.80;2.30;;;;;;;14.48;97.17;96482.70;104299;1273;75642;-52
2024/04/16 07:29:24;;;;;;;9.20;2.80;;;;;;;14.53;96.69;96486.65;104520;1269;66280;-53
2024/04/16 07:31:51;;;;;;;4.80;1.50;;;;;;;14.57;95.39;96485.30;104229;1270;71805;-57
2024/04/16 07:34:18;;;;;;;6.50;1.50;;;;;;;14.60;93.32;96478.95;104429;1273;61405;-51
2024/04/16 07:36:44;;;;;;;5.70;1.90;;;;;;;14.60;90.52;96470.48;104490;1271;61260;-50
2024/04/16 07:39:11;;;;;;;7.30;1.80;;;;;;;14.54;88.32;96476.39;104392;1274;75659;-53
2024/04/16 07:41:37;;;;;;;7.50;1.80;;;;;;;14.50;87.36;96471.98;104338;1274;66593;-48
2024/04/16 07:44:04;;;;;;;8.60;2.00;;;;;;;14.52;86.78;96465.86;104446;1273;72363;-50
2024/04/16 07:46:33;;;;;;;4.90;1.60;;;;;;;14.59;85.79;96480.25;104357;1273;61265;-53
2024/04/16 07:49:00;;;;;;;5.40;1.80;;;;;;;14.64;84.15;96477.36;104768;1272;61191;-61
2024/04/16 07:51:26;;;;;;;7.30;2.00;;;;;;;14.68;83.14;96474.75;104522;1269;74426;-50
2024/04/16 07:53:53;;;;;;;4.50;1.30;;;;;;;14.71;83.54;96468.97;104834;1270;67209;-47
2024/04/16 07:56:19;;;;;;;9.60;2.00;;;;;;;14.70;81.97;96483.88;104223;1274;73045;-46
2024/04/16 07:58:46;;;;;;;4.70;1.70;;;;;;;14.66;81.73;96502.65;104240;1273;61325;-50
2024/04/16 08:01:14;;;;;;;3.80;1.20;;;;;;;14.66;81.03;96505.52;104535;1270;61269;-58
2024/04/16 08:03:41;;;;;;;3.90;1.60;;;;;;;14.70;80.12;96503.52;104329;1272;74647;-54
2024/04/16 08:06:10;;;;;;;5.80;1.50;;;;;;;14.75;79.75;96503.63;104304;1273;63743;-54
2024/04/16 08:08:37;;;;;;;5.70;1.60;;;;;;;14.79;79.32;96508.55;104565;1273;71435;-47
2024/04/16 08:11:10;;;;;;;6.70;1.80;;;;;;;14.84;78.53;96521.85;104587;1273;61376;-59
2024/04/16 08:13:38;;;;;;;5.60;1.60;;;;;;;14.89;78.30;96527.65;104544;1270;61302;-47
2024/04/16 08:16:05;;;;;;;5.70;1.50;;;;;;;14.89;77.03;96529.73;104432;1274;75586;-51
2024/04/16 08:18:32;;;;;;;5.20;1.50;;;;;;;14.89;77.64;96527.83;104605;1273;64065;-51
2024/04/16 08:20:59;;;;;;;3.40;1.20;;;;;;;14.91;75.54;96528.40;104657;1271;73443;-51
2024/04/16 08:23:25;;;;;;;4.20;1.40;;;;;;;14.91;75.09;96519.76;104240;1273;61383;-53
2024/04/16 08:25:59;;;;;;;5.60;1.20;;;;;;;14.85;73.98;96517.86;104321;1271;61319;-51
2024/04/16 08:28:30;;;;;;;4.40;1.30;;;;;;;14.76;72.40;96518.82;104302;1270;74648;-50
2024/04/16 08:30:58;;;;;;;6.00;1.40;;;;;;;14.71;73.20;96509.30;104525;1270;65403;-48
2024/04/16 08:33:24;;;;;;;5.40;1.40;;;;;;;14.72;73.41;96508.48;104456;1270;73737;-48
2024/04/16 08:35:52;;;;;;;4.20;1.20;;;;;;;14.76;74.46;96507.27;104692;1273;60625;-48
2024/04/16 08:38:19;;;;;;;4.70;1.20;;;;;;;14.84;74.20;96516.23;104366;1270;61520;-48
2024/04/16 08:40:47;;;;;;;3.20;1.20;;;;;;;14.88;71.89;96515.46;104364;1274;74398;-49
2024/04/16 08:43:14;;;;;;;5.00;1.30;;;;;;;14.88;71.22;96509.85;104173;1273;67252;-52
2024/04/16 08:45:43;;;;;;;7.10;1.50;;;;;;;14.87;71.07;96503.20;104294;1271;73694;-48
2024/04/16 08:48:10;;;;;;;4.70;1.40;;;;;;;14.87;70.71;96503.80;104280;1274;61276;-48
2024/04/16 08:50:36;;;;;;;4.90;1.10;;;;;;;14.83;70.90;96519.90;104247;1274;61270;-47
2024/04/16 08:53:04;;;;;;;5.80;1.30;;;;;;;14.79;71.43;96527.81;104232;1273;75009;-50
2024/04/16 08:55:33;;;;;;;3.70;1.20;;;;;;;14.77;71.60;96531.02;105934;1269;65229;-48
2024/04/16 08:57:59;;;;;;;5.70;1.10;;;;;;;14.78;71.47;96530.72;104659;1271;72913;-47
2024/04/16 09:00:26;;;;;;;3.20;1.30;;;;;;;14.75;71.99;96533.90;104358;1273;61287;-49
2024/04/16 09:02:53;;;;;;;6.40;1.50;;;;;;;14.72;72.74;96536.43;104207;1270;61390;-52
2024/04/16 09:05:19;;;;;;;4.40;1.20;;;;;;;14.71;72.81;96538.72;104479;1273;73202;-47
2024/04/16 09:07:49;;;;;;;5.60;1.30;;;;;;;14.70;74.07;96544.16;104325;1271;65596;-52
2024/04/16 09:10:20;;;;;;;4.70;1.30;;;;;;;14.70;73.17;96543.10;104541;1270;73353;-49
2024/04/16 09:12:50;;;;;;;5.10;1.30;;;;;;;14.66;73.09;96543.70;104379;1270;61239;-48
2024/04/16 09:15:17;;;;;;;4.80;1.40;;;;;;;14.69;73.57;96538.15;104358;1274;61358;-51
2024/04/16 09:17:51;;;;;;;4.30;1.20;;;;;;;14.72;73.14;96532.89;104240;1273;74370;-49
2024/04/16 09:20:24;;;;;;;6.50;1.60;;;;;;;14.74;73.18;96539.05;104358;1274;65100;-48
2024/04/16 09:22:51;;;;;;;4.60;1.10;;;;;;;14.78;72.93;96537.71;104635;1270;72640;-48
2024/04/16 09:25:18;;;;;;;9.90;1.60;;;;;;;14.81;73.35;96540.41;104359;1273;61294;-48
2024/04/16 09:27:46;;;;;;;4.30;1.50;;;;;;;14.88;73.90;96541.58;104440;1271;61346;-49
2024/04/16 09:30:13;;;;;;;5.50;1.40;;;;;;;14.95;73.70;96538.88;104755;1270;74588;-49
2024/04/16 09:32:42;;;;;;;2.30;1.10;;;;;;;15.02;72.42;96541.48;104418;1274;65898;-47
2024/04/16 09:35:09;;;;;;;4.20;1.20;;;;;;;15.03;70.31;96540.50;104304;1273;71625;-50
2024/04/16 09:37:35;;;;;;;3.00;0.90;;;;;;;14.96;69.74;96539.14;104282;1274;61280;-49
2024/04/16 09:40:07;;;;;;;5.40;1.20;;;;;;;14.93;69.98;96541.30;104690;1270;61806;-51
2024/04/16 09:42:34;;;;;;;6.60;1.50;;;;;;;14.94;70.28;96543.70;104619;1270;75325;-48
2024/04/16 09:45:00;;;;;;;2.60;0.70;;;;;;;14.95;69.96;96541.73;103998;1276;65271;-54
2024/04/16 09:47:30;;;;;;;2.70;1.10;;;;;;;14.96;70.44;96538.96;104041;1271;72857;-50
2024/04/16 09:49:57;;;;;;;2.60;1.00;;;;;;;15.00;70.73;96537.14;104465;1273;62646;-51
2024/04/16 09:52:45;;;;;;;3.90;1.20;;;;;;;15.07;70.01;96537.82;104304;1271;61236;-48
2024/04/16 09:59:55;;;;;;;3.40;0.90;;;;;;;15.25;70.11;96527.09;104541;1273;66100;-49
2024/04/16 10:02:26;;;;;;;4.40;1.00;;;;;;;15.34;69.23;96526.96;104327;1271;72591;-55
2024/04/16 10:04:53;;;;;;;3.30;0.90;;;;;;;15.37;67.73;96526.09;105054;1273;61295;-51
2024/04/16 10:07:20;;;;;;;5.50;0.90;;;;;;;15.38;66.70;96529.13;104269;1270;61290;-50
2024/04/16 10:09:47;;;;;;;2.20;0.90;;;;;;;15.34;65.40;96532.11;104098;1270;61327;-47
2024/04/16 10:12:13;;;;;;;3.70;0.90;;;;;;;15.28;65.18;96520.27;104385;1273;65337;-48
2024/04/16 10:14:40;;;;;;;1.30;0.90;;;;;;;15.25;65.62;96518.84;103880;1271;71436;-48
2024/04/16 10:17:16;;;;;;;5.10;0.80;;;;;;;15.27;66.21;96527.90;104387;1272;62047;-48
2024/04/16 10:19:43;;;;;;;4.20;0.70;;;;;;;15.28;65.45;96524.77;108247;1269;59306;-48
2024/04/16 10:22:13;;;;;;;3.70;0.90;;;;;;;15.24;64.27;96521.77;104502;1270;74569;-49
2024/04/16 10:24:50;;;;;;;2.50;0.70;;;;;;;15.17;64.07;96528.70;105123;1273;66093;-47
2024/04/16 10:27:19;;;;;;;1.40;0.70;;;;;;;15.12;64.84;96529.58;104531;1270;72336;-47
2024/04/16 10:29:46;;;;;;;5.20;1.00;;;;;;;15.09;64.65;96529.77;104647;1270;61324;-48
2024/04/16 10:32:13;;;;;;;4.30;0.80;;;;;;;15.04;64.12;96527.66;104375;1274;61274;-48
2024/04/16 10:34:40;;;;;;;2.10;0.70;;;;;;;14.96;64.84;96525.73;104159;1273;76201;-49
2024/04/16 10:37:07;;;;;;;3.50;0.90;;;;;;;14.93;65.59;96519.49;104278;1274;67073;-47
2024/04/16 10:39:34;;;;;;;3.30;0.80;;;;;;;14.92;66.30;96517.77;105896;1270;73499;-48
2024/04/16 10:42:03;;;;;;;2.00;0.90;;;;;;;14.95;66.88;96520.08;104287;1273;61323;-47
2024/04/16 10:44:32;;;;;;;1.50;0.80;;;;;;;14.97;67.07;96529.06;104229;1270;63576;-47
2024/04/16 10:47:00;;;;;;;3.30;0.70;;;;;;;14.92;66.89;96528.27;104196;1270;73278;-48
2024/04/16 10:49:28;;;;;;;2.80;1.10;;;;;;;14.85;66.97;96524.72;105043;1271;66193;-49
2024/04/16 10:51:55;;;;;;;2.70;0.80;;;;;;;14.76;67.19;96529.21;104331;1270;73677;-47
2024/04/16 10:54:21;;;;;;;7.20;0.90;;;;;;;14.66;67.85;96530.36;104253;1269;61263;-50
2024/04/16 10:56:50;;;;;;;2.10;0.70;;;;;;;14.54;68.28;96539.66;104581;1270;61346;-47
2024/04/16 10:59:17;;;;;;;2.80;0.90;;;;;;;14.43;68.93;96533.84;104644;1273;75515;-47
2024/04/16 11:01:44;;;;;;;2.80;1.00;;;;;;;14.37;69.67;96541.72;104373;1273;66845;-47
2024/04/16 11:04:12;;;;;;;3.80;1.00;;;;;;;14.31;70.19;96540.17;104146;1270;73247;-49
2024/04/16 11:06:39;;;;;;;4.20;0.70;;;;;;;14.27;71.14;96533.36;104415;1270;61670;-49
2024/04/16 11:09:07;;;;;;;1.20;0.60;;;;;;;14.30;71.86;96536.70;104569;1270;61383;-52
2024/04/16 11:11:33;;;;;;;2.90;0.70;;;;;;;14.36;71.80;96535.83;104507;1271;75537;-46
2024/04/16 11:14:00;;;;;;;2.90;1.00;;;;;;;14.36;71.78;96536.52;104156;1273;66966;-46
2024/04/16 11:16:27;;;;;;;3.60;1.00;;;;;;;14.38;71.99;96528.95;104106;1270;73622;-47
2024/04/16 11:18:55;;;;;;;1.30;0.80;;;;;;;14.42;72.34;96527.11;104033;1274;61241;-47
2024/04/16 11:21:23;;;;;;;2.30;1.00;;;;;;;14.46;72.45;96534.81;104164;1270;61767;-52
2024/04/16 11:23:49;;;;;;;3.40;1.00;;;;;;;14.45;72.24;96540.89;104040;1270;73945;-49
2024/04/16 11:26:16;;;;;;;2.30;0.70;;;;;;;14.44;72.53;96543.02;104050;1273;64653;-48
2024/04/16 11:28:43;;;;;;;3.50;1.10;;;;;;;14.45;72.86;96535.04;105064;1273;71773;-47
2024/04/16 11:31:09;;;;;;;1.70;0.90;;;;;;;14.46;73.17;96536.45;104518;1273;61189;-43
2024/04/16 11:33:38;;;;;;;4.10;0.90;;;;;;;14.47;73.67;96533.94;104278;1275;61291;-46
2024/04/16 11:36:07;;;;;;;2.00;0.80;;;;;;;14.46;74.00;96535.91;104341;1271;74589;-47
2024/04/16 11:38:39;;;;;;;2.90;0.80;;;;;;;14.47;74.21;96534.61;104341;1270;65571;-52